Terminal Aerodrome Forecast
Issued by NWS

Home | Current Version | Previous Version | Text Only | Print | Product List | Glossary On
Versions: 1 2 3 4 5 6 7 8 9 10 11 12
000
FTUS44 KTSA 261726
TAFFYV
TAF
KFYV 261726Z 2618/2718 00000KT P6SM VCTS BKN025CB OVC045
     FM270000 15002KT P6SM SCT050 BKN150
     FM271000 00000KT P6SM BKN050=

USA.gov is the U.S. government's official web portal to all federal, state and local government web resources and services.